»·PEaware :: N27JP KSBA-KBUR

N27JP :: KSBA-KBUR

FLIGHT INFORMATION

Flight Status: Arrived
Operator: Privately registered:
United States
More flights under this callsign
Pilot: Weston J. (31543)
Aircraft: CESSNA 172 SKYHAWK
(C172)
More flights by this aircraft type
Origin: KSBA Santa Barbara Mun
United States
Destination: KBUR Bob Hope-Burbank
United States
More flights between these airports :: More routes between these airports
Route:
File this flight plan on PilotEdge
Remarks: CAT-08 Rating
Altitude:
(Current/Filed)
5,550ft
Speed:
(Current/Filed)
110kts
Departed: 27-Sep-20 01:12 PM
Arrived: 27-Sep-20 01:52 PM
Distance/Time
Traveled:
6855nm/0:40
Distance/Time
To Go:
Arrived

Flight Plot

Page will automatically refresh every two minutes.


Map Options




Map Legend


Flown Route
Filed Route
Departure Airport
Arrival Airport
Navaid (VOR, NDB)
Fix

Horizontal Profiles

Position Reports

Time Latitude Longitude Heading Altitude Ground
Speed
27-Sep-20 12:57 34.429331 -119.844353 334 14ft 0kts
27-Sep-20 12:58 34.429331 -119.844353 334 14ft 0kts
27-Sep-20 12:59 34.429331 -119.844353 334 14ft 0kts
27-Sep-20 13:00 34.429331 -119.844353 334 14ft 0kts
27-Sep-20 13:01 34.429331 -119.844353 334 14ft 0kts
27-Sep-20 13:02 34.429331 -119.844353 334 14ft 0kts
27-Sep-20 13:03 34.429331 -119.844353 334 14ft 0kts
27-Sep-20 13:04 34.429331 -119.844353 334 14ft 0kts
27-Sep-20 13:05 34.429331 -119.844353 334 14ft 0kts
27-Sep-20 13:06 34.429331 -119.844353 334 14ft 0kts
27-Sep-20 13:07 34.429331 -119.844353 334 14ft 0kts
27-Sep-20 13:08 34.429333 -119.844447 228 14ft 3kts
27-Sep-20 13:09 34.429906 -119.841867 64 14ft 0kts
27-Sep-20 13:10 34.429902 -119.841334 156 14ft 16kts
27-Sep-20 13:11 34.412733 -119.835724 164 504ft 70kts
27-Sep-20 13:12 34.396041 -119.828640 159 1190ft 61kts
27-Sep-20 13:13 34.377250 -119.821953 166 1525ft 103kts
27-Sep-20 13:14 34.360315 -119.797057 91 2031ft 110kts
27-Sep-20 13:15 34.359881 -119.759012 79 2487ft 115kts
27-Sep-20 13:16 34.379434 -119.728027 50 2891ft 117kts
27-Sep-20 13:17 34.400219 -119.697269 50 3259ft 118kts
27-Sep-20 13:18 34.412885 -119.662499 94 3595ft 119kts
27-Sep-20 13:19 34.410007 -119.622261 95 3915ft 120kts
27-Sep-20 13:20 34.406920 -119.581874 95 4211ft 120kts
27-Sep-20 13:21 34.403861 -119.541196 95 4488ft 121kts
27-Sep-20 13:22 34.400779 -119.500463 95 4746ft 121kts
27-Sep-20 13:23 34.397696 -119.459541 95 4993ft 122kts
27-Sep-20 13:24 34.394653 -119.418500 95 5221ft 123kts
27-Sep-20 13:25 34.391690 -119.378259 95 5495ft 125kts
27-Sep-20 13:26 34.388581 -119.335458 95 5499ft 129kts
27-Sep-20 13:27 34.385455 -119.292159 95 5502ft 129kts
27-Sep-20 13:28 34.382263 -119.248412 95 5468ft 131kts
27-Sep-20 13:29 34.379072 -119.204791 95 5462ft 129kts
27-Sep-20 13:30 34.375907 -119.161200 95 5464ft 129kts
27-Sep-20 13:31 34.372772 -119.117862 95 5463ft 129kts
27-Sep-20 13:32 34.369640 -119.074745 95 5462ft 129kts
27-Sep-20 13:33 34.366503 -119.031386 95 5463ft 129kts
27-Sep-20 13:34 34.363356 -118.987925 95 5463ft 129kts
27-Sep-20 13:36 34.360212 -118.944645 95 5463ft 129kts
27-Sep-20 13:37 34.357073 -118.901127 95 5464ft 130kts
27-Sep-20 13:38 34.348053 -118.859138 108 5461ft 129kts
27-Sep-20 13:39 34.336620 -118.817996 108 5462ft 129kts
27-Sep-20 13:40 34.325072 -118.776617 108 5463ft 129kts
27-Sep-20 13:41 34.313573 -118.735324 108 5462ft 129kts
27-Sep-20 13:42 34.302252 -118.694685 108 5568ft 126kts
27-Sep-20 13:43 34.290810 -118.653700 108 5574ft 129kts
27-Sep-20 13:44 34.279260 -118.612357 108 5571ft 129kts
27-Sep-20 13:45 34.264934 -118.572801 118 5574ft 129kts
27-Sep-20 13:46 34.247263 -118.534194 121 5373ft 138kts
27-Sep-20 13:47 34.226894 -118.494826 124 4789ft 137kts
27-Sep-20 13:48 34.209130 -118.455536 125 3920ft 136kts
27-Sep-20 13:49 34.199191 -118.419302 98 2325ft 90kts
27-Sep-20 13:50 34.198007 -118.391276 92 1197ft 76kts
27-Sep-20 13:51 34.197861 -118.367660 89 739ft 58kts
27-Sep-20 13:52 34.198595 -118.360243 2 717ft 0kts
27-Sep-20 13:52 34.198595 -118.360243 2 717ft 0kts
27-Sep-20 13:54 34.198595 -118.360243 2 717ft 0kts
27-Sep-20 13:55 34.198595 -118.360243 2 717ft 0kts
27-Sep-20 13:55 34.198595 -118.360243 2 717ft 0kts
27-Sep-20 13:56 34.198595 -118.360243 2 717ft 0kts
27-Sep-20 13:58 34.199576 -118.360734 338 717ft 0kts
27-Sep-20 13:58 0.000408 0.013975 0 3ft 0kts
27-Sep-20 13:59 0.000408 0.013975 0 3ft 0kts
27-Sep-20 14:00 0.000408 0.013975 0 3ft 0kts
27-Sep-20 14:01 0.000408 0.013975 0 3ft 0kts
27-Sep-20 14:02 0.000408 0.013975 0 3ft 0kts
27-Sep-20 14:03 0.000408 0.013975 0 3ft 0kts
27-Sep-20 14:04 0.000408 0.013975 0 3ft 0kts
27-Sep-20 14:05 0.000408 0.013975 0 3ft 0kts

Navigation Log

Ident Type
Flight plan parsing failed, navigation log unavailable